sensor_id;sensor_type;location;lat;lon;timestamp;temperature;humidity
21035;DHT22;10676;50.848;3.272;2024-02-23T00:01:58;6.00;99.90
21035;DHT22;10676;50.848;3.272;2024-02-23T00:04:23;6.00;99.90
21035;DHT22;10676;50.848;3.272;2024-02-23T00:06:49;5.90;99.90
21035;DHT22;10676;50.848;3.272;2024-02-23T00:09:15;5.80;99.90
21035;DHT22;10676;50.848;3.272;2024-02-23T00:11:45;5.80;99.90
21035;DHT22;10676;50.848;3.272;2024-02-23T00:14:12;5.70;99.90
21035;DHT22;10676;50.848;3.272;2024-02-23T00:16:41;5.70;99.90
21035;DHT22;10676;50.848;3.272;2024-02-23T00:19:08;5.60;99.90
21035;DHT22;10676;50.848;3.272;2024-02-23T00:21:39;5.60;99.90
21035;DHT22;10676;50.848;3.272;2024-02-23T00:24:06;5.60;99.90
21035;DHT22;10676;50.848;3.272;2024-02-23T00:26:32;5.50;99.90
21035;DHT22;10676;50.848;3.272;2024-02-23T00:28:57;5.50;99.90
21035;DHT22;10676;50.848;3.272;2024-02-23T00:31:23;5.40;99.90
21035;DHT22;10676;50.848;3.272;2024-02-23T00:33:51;5.50;99.90
21035;DHT22;10676;50.848;3.272;2024-02-23T00:36:17;5.40;99.90
21035;DHT22;10676;50.848;3.272;2024-02-23T00:38:44;5.40;99.90
21035;DHT22;10676;50.848;3.272;2024-02-23T00:41:10;5.40;99.90
21035;DHT22;10676;50.848;3.272;2024-02-23T00:43:42;5.40;99.90
21035;DHT22;10676;50.848;3.272;2024-02-23T00:46:08;5.40;99.90
21035;DHT22;10676;50.848;3.272;2024-02-23T00:48:34;5.40;99.90
21035;DHT22;10676;50.848;3.272;2024-02-23T00:51:09;5.40;99.90
21035;DHT22;10676;50.848;3.272;2024-02-23T00:53:35;5.40;99.90
21035;DHT22;10676;50.848;3.272;2024-02-23T00:56:01;5.40;99.90
21035;DHT22;10676;50.848;3.272;2024-02-23T00:58:27;5.40;99.90
21035;DHT22;10676;50.848;3.272;2024-02-23T01:00:52;5.30;99.90
21035;DHT22;10676;50.848;3.272;2024-02-23T01:03:18;5.40;99.90
21035;DHT22;10676;50.848;3.272;2024-02-23T01:05:44;5.40;99.90
21035;DHT22;10676;50.848;3.272;2024-02-23T01:08:09;5.30;99.90
21035;DHT22;10676;50.848;3.272;2024-02-23T01:10:35;5.30;99.90
21035;DHT22;10676;50.848;3.272;2024-02-23T01:13:01;5.30;99.90
21035;DHT22;10676;50.848;3.272;2024-02-23T01:15:26;5.40;99.90
21035;DHT22;10676;50.848;3.272;2024-02-23T01:17:52;5.40;99.90
21035;DHT22;10676;50.848;3.272;2024-02-23T01:20:17;5.40;99.90
21035;DHT22;10676;50.848;3.272;2024-02-23T01:22:44;5.50;99.90
21035;DHT22;10676;50.848;3.272;2024-02-23T01:25:09;5.50;99.90
21035;DHT22;10676;50.848;3.272;2024-02-23T01:27:35;5.50;99.90
21035;DHT22;10676;50.848;3.272;2024-02-23T01:30:17;5.50;99.90
21035;DHT22;10676;50.848;3.272;2024-02-23T01:32:44;5.50;99.90
21035;DHT22;10676;50.848;3.272;2024-02-23T01:35:12;5.50;99.90
21035;DHT22;10676;50.848;3.272;2024-02-23T01:37:38;5.50;99.90
21035;DHT22;10676;50.848;3.272;2024-02-23T01:40:06;5.50;99.90
21035;DHT22;10676;50.848;3.272;2024-02-23T01:42:31;5.50;99.90
21035;DHT22;10676;50.848;3.272;2024-02-23T01:44:57;5.60;99.90
21035;DHT22;10676;50.848;3.272;2024-02-23T01:47:24;5.60;99.90
21035;DHT22;10676;50.848;3.272;2024-02-23T01:49:51;5.70;99.90
21035;DHT22;10676;50.848;3.272;2024-02-23T01:52:17;5.70;99.90
21035;DHT22;10676;50.848;3.272;2024-02-23T01:54:45;5.70;99.90
21035;DHT22;10676;50.848;3.272;2024-02-23T01:57:11;5.70;99.90
21035;DHT22;10676;50.848;3.272;2024-02-23T01:59:38;5.80;99.90
21035;DHT22;10676;50.848;3.272;2024-02-23T02:02:05;5.80;99.90
21035;DHT22;10676;50.848;3.272;2024-02-23T02:04:30;5.80;99.90
21035;DHT22;10676;50.848;3.272;2024-02-23T02:06:57;5.80;99.90
21035;DHT22;10676;50.848;3.272;2024-02-23T02:09:26;5.80;99.90
21035;DHT22;10676;50.848;3.272;2024-02-23T02:11:52;5.90;99.90
21035;DHT22;10676;50.848;3.272;2024-02-23T02:14:18;5.90;99.90
21035;DHT22;10676;50.848;3.272;2024-02-23T02:16:44;5.90;99.90
21035;DHT22;10676;50.848;3.272;2024-02-23T02:19:14;5.90;99.90
21035;DHT22;10676;50.848;3.272;2024-02-23T02:21:41;6.00;99.90
21035;DHT22;10676;50.848;3.272;2024-02-23T02:24:07;6.00;99.90
21035;DHT22;10676;50.848;3.272;2024-02-23T02:26:34;6.00;99.90
21035;DHT22;10676;50.848;3.272;2024-02-23T02:29:10;6.00;99.90
21035;DHT22;10676;50.848;3.272;2024-02-23T02:31:36;6.00;99.90
21035;DHT22;10676;50.848;3.272;2024-02-23T02:34:03;6.00;99.90
21035;DHT22;10676;50.848;3.272;2024-02-23T02:36:29;6.00;99.90
21035;DHT22;10676;50.848;3.272;2024-02-23T02:38:57;6.00;99.90
21035;DHT22;10676;50.848;3.272;2024-02-23T02:41:24;6.00;99.90
21035;DHT22;10676;50.848;3.272;2024-02-23T02:43:53;6.00;99.90
21035;DHT22;10676;50.848;3.272;2024-02-23T02:46:19;6.00;99.90
21035;DHT22;10676;50.848;3.272;2024-02-23T02:48:45;6.00;99.90
21035;DHT22;10676;50.848;3.272;2024-02-23T02:51:10;6.10;99.90
21035;DHT22;10676;50.848;3.272;2024-02-23T02:53:37;6.10;99.90
21035;DHT22;10676;50.848;3.272;2024-02-23T02:56:06;6.10;99.90
21035;DHT22;10676;50.848;3.272;2024-02-23T02:58:32;6.10;99.90
21035;DHT22;10676;50.848;3.272;2024-02-23T03:00:58;6.20;99.90
21035;DHT22;10676;50.848;3.272;2024-02-23T03:03:23;6.10;99.90
21035;DHT22;10676;50.848;3.272;2024-02-23T03:05:49;6.10;99.90
21035;DHT22;10676;50.848;3.272;2024-02-23T03:08:18;6.20;99.90
21035;DHT22;10676;50.848;3.272;2024-02-23T03:10:44;6.20;99.90
21035;DHT22;10676;50.848;3.272;2024-02-23T03:13:09;6.10;99.90
21035;DHT22;10676;50.848;3.272;2024-02-23T03:15:37;6.10;99.90
21035;DHT22;10676;50.848;3.272;2024-02-23T03:18:03;6.10;99.90
21035;DHT22;10676;50.848;3.272;2024-02-23T03:20:28;6.10;99.90
21035;DHT22;10676;50.848;3.272;2024-02-23T03:22:54;6.00;99.90
21035;DHT22;10676;50.848;3.272;2024-02-23T03:25:21;6.00;99.90
21035;DHT22;10676;50.848;3.272;2024-02-23T03:27:47;6.00;99.90
21035;DHT22;10676;50.848;3.272;2024-02-23T03:30:13;6.00;99.90
21035;DHT22;10676;50.848;3.272;2024-02-23T03:32:39;6.10;99.90
21035;DHT22;10676;50.848;3.272;2024-02-23T03:35:06;6.20;99.90
21035;DHT22;10676;50.848;3.272;2024-02-23T03:37:33;6.30;99.90
21035;DHT22;10676;50.848;3.272;2024-02-23T03:40:01;6.40;99.90
21035;DHT22;10676;50.848;3.272;2024-02-23T03:42:27;6.50;99.90
21035;DHT22;10676;50.848;3.272;2024-02-23T03:45:08;6.60;99.90
21035;DHT22;10676;50.848;3.272;2024-02-23T03:47:34;6.60;99.90
21035;DHT22;10676;50.848;3.272;2024-02-23T03:50:04;6.70;99.90
21035;DHT22;10676;50.848;3.272;2024-02-23T03:52:30;6.70;99.90
21035;DHT22;10676;50.848;3.272;2024-02-23T03:54:56;6.80;99.90
21035;DHT22;10676;50.848;3.272;2024-02-23T03:57:21;6.90;99.90
21035;DHT22;10676;50.848;3.272;2024-02-23T03:59:54;6.90;99.90
21035;DHT22;10676;50.848;3.272;2024-02-23T04:02:20;7.00;99.90
21035;DHT22;10676;50.848;3.272;2024-02-23T04:04:49;6.90;99.90
21035;DHT22;10676;50.848;3.272;2024-02-23T04:07:15;6.90;99.90
21035;DHT22;10676;50.848;3.272;2024-02-23T04:09:41;6.90;99.90
21035;DHT22;10676;50.848;3.272;2024-02-23T04:12:09;6.80;99.90
21035;DHT22;10676;50.848;3.272;2024-02-23T04:14:34;6.70;99.90
21035;DHT22;10676;50.848;3.272;2024-02-23T04:17:03;6.70;99.90
21035;DHT22;10676;50.848;3.272;2024-02-23T04:19:29;6.60;99.90
21035;DHT22;10676;50.848;3.272;2024-02-23T04:21:54;6.50;99.90
21035;DHT22;10676;50.848;3.272;2024-02-23T04:24:20;6.40;99.90
21035;DHT22;10676;50.848;3.272;2024-02-23T04:26:46;6.40;99.90
21035;DHT22;10676;50.848;3.272;2024-02-23T04:29:11;6.30;99.90
21035;DHT22;10676;50.848;3.272;2024-02-23T04:31:37;6.20;99.90
21035;DHT22;10676;50.848;3.272;2024-02-23T04:34:03;6.10;99.90
21035;DHT22;10676;50.848;3.272;2024-02-23T04:36:29;6.10;99.90
21035;DHT22;10676;50.848;3.272;2024-02-23T04:38:55;6.00;99.90
21035;DHT22;10676;50.848;3.272;2024-02-23T04:41:20;6.00;99.90
21035;DHT22;10676;50.848;3.272;2024-02-23T04:43:50;5.90;99.90
21035;DHT22;10676;50.848;3.272;2024-02-23T04:46:15;5.80;99.90
21035;DHT22;10676;50.848;3.272;2024-02-23T04:48:41;5.80;99.90
21035;DHT22;10676;50.848;3.272;2024-02-23T04:51:11;5.70;99.90
21035;DHT22;10676;50.848;3.272;2024-02-23T04:53:37;5.70;99.90
21035;DHT22;10676;50.848;3.272;2024-02-23T04:56:19;5.70;99.90
21035;DHT22;10676;50.848;3.272;2024-02-23T04:58:46;5.70;99.90
21035;DHT22;10676;50.848;3.272;2024-02-23T05:01:12;5.80;99.90
21035;DHT22;10676;50.848;3.272;2024-02-23T05:03:38;5.90;99.90
21035;DHT22;10676;50.848;3.272;2024-02-23T05:06:04;5.90;99.90
21035;DHT22;10676;50.848;3.272;2024-02-23T05:08:30;6.00;99.90
21035;DHT22;10676;50.848;3.272;2024-02-23T05:10:56;6.10;99.90
21035;DHT22;10676;50.848;3.272;2024-02-23T05:13:23;6.20;99.90
21035;DHT22;10676;50.848;3.272;2024-02-23T05:15:48;6.30;99.90
21035;DHT22;10676;50.848;3.272;2024-02-23T05:18:14;6.30;99.90
21035;DHT22;10676;50.848;3.272;2024-02-23T05:20:40;6.40;99.90
21035;DHT22;10676;50.848;3.272;2024-02-23T05:23:05;6.50;99.90
21035;DHT22;10676;50.848;3.272;2024-02-23T05:25:34;6.50;99.90
21035;DHT22;10676;50.848;3.272;2024-02-23T05:28:00;6.60;99.90
21035;DHT22;10676;50.848;3.272;2024-02-23T05:30:26;6.60;99.90
21035;DHT22;10676;50.848;3.272;2024-02-23T05:32:57;6.60;99.90
21035;DHT22;10676;50.848;3.272;2024-02-23T05:35:24;6.60;99.90
21035;DHT22;10676;50.848;3.272;2024-02-23T05:37:49;6.60;99.90
21035;DHT22;10676;50.848;3.272;2024-02-23T05:40:15;6.60;99.90
21035;DHT22;10676;50.848;3.272;2024-02-23T05:42:43;6.60;99.90
21035;DHT22;10676;50.848;3.272;2024-02-23T05:45:09;6.50;99.90
21035;DHT22;10676;50.848;3.272;2024-02-23T05:47:36;6.50;99.90
21035;DHT22;10676;50.848;3.272;2024-02-23T05:50:03;6.50;99.90
21035;DHT22;10676;50.848;3.272;2024-02-23T05:52:31;6.50;99.90
21035;DHT22;10676;50.848;3.272;2024-02-23T05:54:58;6.50;99.90
21035;DHT22;10676;50.848;3.272;2024-02-23T05:57:28;6.50;99.90
21035;DHT22;10676;50.848;3.272;2024-02-23T05:59:54;6.40;99.90
21035;DHT22;10676;50.848;3.272;2024-02-23T06:02:23;6.40;99.90
21035;DHT22;10676;50.848;3.272;2024-02-23T06:04:49;6.40;99.90
21035;DHT22;10676;50.848;3.272;2024-02-23T06:07:14;6.40;99.90
21035;DHT22;10676;50.848;3.272;2024-02-23T06:09:43;6.50;99.90
21035;DHT22;10676;50.848;3.272;2024-02-23T06:12:09;6.60;99.90
21035;DHT22;10676;50.848;3.272;2024-02-23T06:14:35;6.60;99.90
21035;DHT22;10676;50.848;3.272;2024-02-23T06:17:01;6.70;99.90
21035;DHT22;10676;50.848;3.272;2024-02-23T06:19:28;6.70;99.90
21035;DHT22;10676;50.848;3.272;2024-02-23T06:21:54;6.70;99.90
21035;DHT22;10676;50.848;3.272;2024-02-23T06:24:20;6.70;99.90
21035;DHT22;10676;50.848;3.272;2024-02-23T06:26:46;6.80;99.90
21035;DHT22;10676;50.848;3.272;2024-02-23T06:29:14;6.90;99.90
21035;DHT22;10676;50.848;3.272;2024-02-23T06:31:40;6.90;99.90
21035;DHT22;10676;50.848;3.272;2024-02-23T06:34:07;7.00;99.90
21035;DHT22;10676;50.848;3.272;2024-02-23T06:36:33;7.00;99.90
21035;DHT22;10676;50.848;3.272;2024-02-23T06:38:58;7.00;99.90
21035;DHT22;10676;50.848;3.272;2024-02-23T06:41:24;7.10;99.90
21035;DHT22;10676;50.848;3.272;2024-02-23T06:43:49;7.10;99.90
21035;DHT22;10676;50.848;3.272;2024-02-23T06:46:19;7.00;99.90
21035;DHT22;10676;50.848;3.272;2024-02-23T06:48:45;7.00;99.90
21035;DHT22;10676;50.848;3.272;2024-02-23T06:51:11;7.00;99.90
21035;DHT22;10676;50.848;3.272;2024-02-23T06:53:37;7.10;99.90
21035;DHT22;10676;50.848;3.272;2024-02-23T06:56:03;7.10;99.90
21035;DHT22;10676;50.848;3.272;2024-02-23T06:58:29;7.10;99.90
21035;DHT22;10676;50.848;3.272;2024-02-23T07:00:55;7.00;99.90
21035;DHT22;10676;50.848;3.272;2024-02-23T07:03:20;7.00;99.90
21035;DHT22;10676;50.848;3.272;2024-02-23T07:05:46;7.00;99.90
21035;DHT22;10676;50.848;3.272;2024-02-23T07:08:13;6.90;99.90
21035;DHT22;10676;50.848;3.272;2024-02-23T07:10:38;6.80;99.90
21035;DHT22;10676;50.848;3.272;2024-02-23T07:13:04;6.70;99.90
21035;DHT22;10676;50.848;3.272;2024-02-23T07:15:30;6.70;99.90
21035;DHT22;10676;50.848;3.272;2024-02-23T07:17:58;6.70;99.90
21035;DHT22;10676;50.848;3.272;2024-02-23T07:20:23;6.70;99.90
21035;DHT22;10676;50.848;3.272;2024-02-23T07:22:49;6.70;99.90
21035;DHT22;10676;50.848;3.272;2024-02-23T07:25:19;6.70;99.90
21035;DHT22;10676;50.848;3.272;2024-02-23T07:27:48;6.70;99.90
21035;DHT22;10676;50.848;3.272;2024-02-23T07:30:17;6.70;99.90
21035;DHT22;10676;50.848;3.272;2024-02-23T07:32:43;6.70;99.90
21035;DHT22;10676;50.848;3.272;2024-02-23T07:35:10;6.80;99.90
21035;DHT22;10676;50.848;3.272;2024-02-23T07:37:39;6.80;99.90
21035;DHT22;10676;50.848;3.272;2024-02-23T07:40:05;6.80;99.90
21035;DHT22;10676;50.848;3.272;2024-02-23T07:42:31;6.80;99.90
21035;DHT22;10676;50.848;3.272;2024-02-23T07:44:57;6.90;99.90
21035;DHT22;10676;50.848;3.272;2024-02-23T07:47:23;6.90;99.90
21035;DHT22;10676;50.848;3.272;2024-02-23T07:49:49;6.90;99.90
21035;DHT22;10676;50.848;3.272;2024-02-23T07:52:15;7.00;99.90
21035;DHT22;10676;50.848;3.272;2024-02-23T07:54:40;7.10;99.90
21035;DHT22;10676;50.848;3.272;2024-02-23T07:57:06;7.20;99.90
21035;DHT22;10676;50.848;3.272;2024-02-23T07:59:32;7.30;99.90
21035;DHT22;10676;50.848;3.272;2024-02-23T08:01:58;7.40;99.90
21035;DHT22;10676;50.848;3.272;2024-02-23T08:04:24;7.50;99.90
21035;DHT22;10676;50.848;3.272;2024-02-23T08:06:50;7.60;99.90
21035;DHT22;10676;50.848;3.272;2024-02-23T08:09:16;7.70;99.90
21035;DHT22;10676;50.848;3.272;2024-02-23T08:11:43;7.80;99.90
21035;DHT22;10676;50.848;3.272;2024-02-23T08:14:08;7.90;99.90
21035;DHT22;10676;50.848;3.272;2024-02-23T08:16:34;8.00;99.90
21035;DHT22;10676;50.848;3.272;2024-02-23T08:19:00;8.10;99.90
21035;DHT22;10676;50.848;3.272;2024-02-23T08:21:25;8.10;99.90
21035;DHT22;10676;50.848;3.272;2024-02-23T08:23:54;8.20;99.90
21035;DHT22;10676;50.848;3.272;2024-02-23T08:26:19;8.20;99.90
21035;DHT22;10676;50.848;3.272;2024-02-23T08:28:45;8.30;99.90
21035;DHT22;10676;50.848;3.272;2024-02-23T08:31:11;8.40;99.90
21035;DHT22;10676;50.848;3.272;2024-02-23T08:33:36;8.40;99.90
21035;DHT22;10676;50.848;3.272;2024-02-23T08:36:02;8.50;99.90
21035;DHT22;10676;50.848;3.272;2024-02-23T08:38:31;8.50;99.90
21035;DHT22;10676;50.848;3.272;2024-02-23T08:40:57;8.60;99.90
21035;DHT22;10676;50.848;3.272;2024-02-23T08:43:24;8.70;99.90
21035;DHT22;10676;50.848;3.272;2024-02-23T08:45:50;8.70;99.90
21035;DHT22;10676;50.848;3.272;2024-02-23T08:48:16;8.80;99.90
21035;DHT22;10676;50.848;3.272;2024-02-23T08:50:42;8.90;99.90
21035;DHT22;10676;50.848;3.272;2024-02-23T08:53:07;8.90;99.90
21035;DHT22;10676;50.848;3.272;2024-02-23T08:55:33;9.00;99.90
21035;DHT22;10676;50.848;3.272;2024-02-23T08:57:59;9.00;99.90
21035;DHT22;10676;50.848;3.272;2024-02-23T09:00:25;9.00;99.90
21035;DHT22;10676;50.848;3.272;2024-02-23T09:02:50;8.80;99.90
21035;DHT22;10676;50.848;3.272;2024-02-23T09:05:16;8.70;99.90
21035;DHT22;10676;50.848;3.272;2024-02-23T09:07:42;8.50;99.90
21035;DHT22;10676;50.848;3.272;2024-02-23T09:10:08;8.30;99.90
21035;DHT22;10676;50.848;3.272;2024-02-23T09:12:34;8.00;99.90
21035;DHT22;10676;50.848;3.272;2024-02-23T09:14:59;7.80;99.90
21035;DHT22;10676;50.848;3.272;2024-02-23T09:17:25;7.60;99.90
21035;DHT22;10676;50.848;3.272;2024-02-23T09:19:51;7.50;99.90
21035;DHT22;10676;50.848;3.272;2024-02-23T09:22:16;7.30;99.90
21035;DHT22;10676;50.848;3.272;2024-02-23T09:24:42;7.20;99.90
21035;DHT22;10676;50.848;3.272;2024-02-23T09:27:08;7.30;99.90
21035;DHT22;10676;50.848;3.272;2024-02-23T09:29:34;7.30;99.90
21035;DHT22;10676;50.848;3.272;2024-02-23T09:32:00;7.30;99.90
21035;DHT22;10676;50.848;3.272;2024-02-23T09:34:26;7.40;99.90
21035;DHT22;10676;50.848;3.272;2024-02-23T09:36:52;7.40;99.90
21035;DHT22;10676;50.848;3.272;2024-02-23T09:39:18;7.50;99.90
21035;DHT22;10676;50.848;3.272;2024-02-23T09:41:43;7.50;99.90
21035;DHT22;10676;50.848;3.272;2024-02-23T09:44:09;7.60;99.90
21035;DHT22;10676;50.848;3.272;2024-02-23T09:46:37;7.60;99.90
21035;DHT22;10676;50.848;3.272;2024-02-23T09:49:03;7.70;99.90
21035;DHT22;10676;50.848;3.272;2024-02-23T09:51:32;7.80;99.90
21035;DHT22;10676;50.848;3.272;2024-02-23T09:53:59;7.90;99.90
21035;DHT22;10676;50.848;3.272;2024-02-23T09:56:27;8.10;99.90
21035;DHT22;10676;50.848;3.272;2024-02-23T09:58:55;8.30;99.90
21035;DHT22;10676;50.848;3.272;2024-02-23T10:01:28;8.40;99.90
21035;DHT22;10676;50.848;3.272;2024-02-23T10:03:57;8.60;99.90
21035;DHT22;10676;50.848;3.272;2024-02-23T10:06:27;8.70;99.90
21035;DHT22;10676;50.848;3.272;2024-02-23T10:08:53;8.90;99.90
21035;DHT22;10676;50.848;3.272;2024-02-23T10:11:22;9.10;99.90
21035;DHT22;10676;50.848;3.272;2024-02-23T10:13:48;9.20;99.90
21035;DHT22;10676;50.848;3.272;2024-02-23T10:16:18;9.40;99.90
21035;DHT22;10676;50.848;3.272;2024-02-23T10:18:48;9.40;99.90
21035;DHT22;10676;50.848;3.272;2024-02-23T10:21:15;9.60;99.90
21035;DHT22;10676;50.848;3.272;2024-02-23T10:23:41;9.70;99.90
21035;DHT22;10676;50.848;3.272;2024-02-23T10:26:08;9.80;99.90
21035;DHT22;10676;50.848;3.272;2024-02-23T10:28:38;9.70;99.90
21035;DHT22;10676;50.848;3.272;2024-02-23T10:31:10;9.70;99.90
21035;DHT22;10676;50.848;3.272;2024-02-23T10:33:35;9.60;99.90
21035;DHT22;10676;50.848;3.272;2024-02-23T10:36:02;9.50;99.90
21035;DHT22;10676;50.848;3.272;2024-02-23T10:38:32;9.30;99.90
21035;DHT22;10676;50.848;3.272;2024-02-23T10:40:58;9.20;99.90
21035;DHT22;10676;50.848;3.272;2024-02-23T10:43:44;9.00;99.90
21035;DHT22;10676;50.848;3.272;2024-02-23T10:46:11;8.90;99.90
21035;DHT22;10676;50.848;3.272;2024-02-23T10:48:40;8.90;99.90
21035;DHT22;10676;50.848;3.272;2024-02-23T10:51:06;8.80;99.90
21035;DHT22;10676;50.848;3.272;2024-02-23T10:53:33;8.80;99.90
21035;DHT22;10676;50.848;3.272;2024-02-23T10:56:00;8.80;99.90
21035;DHT22;10676;50.848;3.272;2024-02-23T10:58:27;8.70;99.90
21035;DHT22;10676;50.848;3.272;2024-02-23T11:03:23;8.50;99.90
21035;DHT22;10676;50.848;3.272;2024-02-23T11:05:49;8.40;99.90
21035;DHT22;10676;50.848;3.272;2024-02-23T11:08:17;8.20;99.90
21035;DHT22;10676;50.848;3.272;2024-02-23T11:10:51;8.10;99.90
21035;DHT22;10676;50.848;3.272;2024-02-23T11:13:36;8.10;99.90
21035;DHT22;10676;50.848;3.272;2024-02-23T11:16:06;8.30;99.90
21035;DHT22;10676;50.848;3.272;2024-02-23T11:18:34;8.50;99.90
21035;DHT22;10676;50.848;3.272;2024-02-23T11:21:04;8.70;99.90
21035;DHT22;10676;50.848;3.272;2024-02-23T11:23:48;8.90;99.90
21035;DHT22;10676;50.848;3.272;2024-02-23T11:26:14;9.10;99.90
21035;DHT22;10676;50.848;3.272;2024-02-23T11:28:53;9.10;99.90
21035;DHT22;10676;50.848;3.272;2024-02-23T11:31:21;9.10;99.90
21035;DHT22;10676;50.848;3.272;2024-02-23T11:33:54;9.00;99.90
21035;DHT22;10676;50.848;3.272;2024-02-23T11:36:31;9.10;99.90
21035;DHT22;10676;50.848;3.272;2024-02-23T11:38:59;9.40;99.90
21035;DHT22;10676;50.848;3.272;2024-02-23T11:41:27;9.60;99.90
21035;DHT22;10676;50.848;3.272;2024-02-23T11:43:53;9.90;99.90
21035;DHT22;10676;50.848;3.272;2024-02-23T11:46:20;10.10;99.90
21035;DHT22;10676;50.848;3.272;2024-02-23T11:48:46;10.40;99.90
21035;DHT22;10676;50.848;3.272;2024-02-23T11:51:15;10.70;99.90
21035;DHT22;10676;50.848;3.272;2024-02-23T11:53:42;10.90;99.90
21035;DHT22;10676;50.848;3.272;2024-02-23T11:56:07;11.30;99.90
21035;DHT22;10676;50.848;3.272;2024-02-23T11:58:34;11.80;99.90
21035;DHT22;10676;50.848;3.272;2024-02-23T12:01:00;12.20;99.90
21035;DHT22;10676;50.848;3.272;2024-02-23T12:03:31;12.80;99.90
21035;DHT22;10676;50.848;3.272;2024-02-23T12:06:01;13.50;99.90
21035;DHT22;10676;50.848;3.272;2024-02-23T12:08:31;14.10;99.90
21035;DHT22;10676;50.848;3.272;2024-02-23T12:11:06;14.50;99.90
21035;DHT22;10676;50.848;3.272;2024-02-23T12:13:34;14.70;99.90
21035;DHT22;10676;50.848;3.272;2024-02-23T12:16:00;14.80;99.90
21035;DHT22;10676;50.848;3.272;2024-02-23T12:18:26;15.00;99.90
21035;DHT22;10676;50.848;3.272;2024-02-23T12:21:05;15.10;99.90
21035;DHT22;10676;50.848;3.272;2024-02-23T12:23:41;15.30;99.90
21035;DHT22;10676;50.848;3.272;2024-02-23T12:26:17;15.50;99.90
21035;DHT22;10676;50.848;3.272;2024-02-23T12:28:44;15.60;99.90
21035;DHT22;10676;50.848;3.272;2024-02-23T12:31:10;15.80;99.90
21035;DHT22;10676;50.848;3.272;2024-02-23T12:33:37;16.00;99.90
21035;DHT22;10676;50.848;3.272;2024-02-23T12:36:04;16.00;99.90
21035;DHT22;10676;50.848;3.272;2024-02-23T12:38:30;16.10;99.90
21035;DHT22;10676;50.848;3.272;2024-02-23T12:40:56;16.10;99.90
21035;DHT22;10676;50.848;3.272;2024-02-23T12:43:22;16.10;99.90
21035;DHT22;10676;50.848;3.272;2024-02-23T12:45:53;16.00;99.90
21035;DHT22;10676;50.848;3.272;2024-02-23T12:48:20;15.60;99.90
21035;DHT22;10676;50.848;3.272;2024-02-23T12:50:46;15.40;99.90
21035;DHT22;10676;50.848;3.272;2024-02-23T12:56:06;14.60;99.90
21035;DHT22;10676;50.848;3.272;2024-02-23T12:58:37;14.30;99.90
21035;DHT22;10676;50.848;3.272;2024-02-23T13:01:03;14.00;99.90
21035;DHT22;10676;50.848;3.272;2024-02-23T13:03:29;13.90;99.90
21035;DHT22;10676;50.848;3.272;2024-02-23T13:05:56;13.90;99.90
21035;DHT22;10676;50.848;3.272;2024-02-23T13:08:22;13.90;99.90
21035;DHT22;10676;50.848;3.272;2024-02-23T13:10:51;14.00;99.90
21035;DHT22;10676;50.848;3.272;2024-02-23T13:13:18;14.20;99.90
21035;DHT22;10676;50.848;3.272;2024-02-23T13:15:47;14.40;99.90
21035;DHT22;10676;50.848;3.272;2024-02-23T13:18:13;14.60;99.90
21035;DHT22;10676;50.848;3.272;2024-02-23T13:20:39;14.80;99.90
21035;DHT22;10676;50.848;3.272;2024-02-23T13:23:07;14.70;99.90
21035;DHT22;10676;50.848;3.272;2024-02-23T13:25:34;14.80;99.90
21035;DHT22;10676;50.848;3.272;2024-02-23T13:28:01;14.70;99.90
21035;DHT22;10676;50.848;3.272;2024-02-23T13:30:26;14.70;99.90
21035;DHT22;10676;50.848;3.272;2024-02-23T13:32:53;14.60;99.90
21035;DHT22;10676;50.848;3.272;2024-02-23T13:35:19;14.60;99.90
21035;DHT22;10676;50.848;3.272;2024-02-23T13:37:44;14.70;99.90
21035;DHT22;10676;50.848;3.272;2024-02-23T13:40:10;14.70;99.90
21035;DHT22;10676;50.848;3.272;2024-02-23T13:42:37;14.70;99.90
21035;DHT22;10676;50.848;3.272;2024-02-23T13:45:06;14.60;99.90
21035;DHT22;10676;50.848;3.272;2024-02-23T13:47:33;14.40;99.90
21035;DHT22;10676;50.848;3.272;2024-02-23T13:49:59;14.10;99.90
21035;DHT22;10676;50.848;3.272;2024-02-23T13:52:25;13.90;99.90
21035;DHT22;10676;50.848;3.272;2024-02-23T13:54:51;13.50;99.90
21035;DHT22;10676;50.848;3.272;2024-02-23T13:57:17;13.20;99.90
21035;DHT22;10676;50.848;3.272;2024-02-23T13:59:42;12.80;99.90
21035;DHT22;10676;50.848;3.272;2024-02-23T14:02:08;12.30;99.90
21035;DHT22;10676;50.848;3.272;2024-02-23T14:04:34;11.90;99.90
21035;DHT22;10676;50.848;3.272;2024-02-23T14:07:01;11.50;99.90
21035;DHT22;10676;50.848;3.272;2024-02-23T14:09:26;11.20;99.90
21035;DHT22;10676;50.848;3.272;2024-02-23T14:11:52;11.30;99.90
21035;DHT22;10676;50.848;3.272;2024-02-23T14:14:18;11.50;99.90
21035;DHT22;10676;50.848;3.272;2024-02-23T14:16:45;11.80;99.90
21035;DHT22;10676;50.848;3.272;2024-02-23T14:19:11;12.10;99.90
21035;DHT22;10676;50.848;3.272;2024-02-23T14:21:36;12.20;99.90
21035;DHT22;10676;50.848;3.272;2024-02-23T14:24:03;12.40;99.90
21035;DHT22;10676;50.848;3.272;2024-02-23T14:26:29;12.50;99.90
21035;DHT22;10676;50.848;3.272;2024-02-23T14:28:54;12.60;99.90
21035;DHT22;10676;50.848;3.272;2024-02-23T14:31:20;12.60;99.90
21035;DHT22;10676;50.848;3.272;2024-02-23T14:33:49;12.60;99.90
21035;DHT22;10676;50.848;3.272;2024-02-23T14:36:17;12.50;99.90
21035;DHT22;10676;50.848;3.272;2024-02-23T14:38:42;12.60;99.90
21035;DHT22;10676;50.848;3.272;2024-02-23T14:41:10;12.70;99.90
21035;DHT22;10676;50.848;3.272;2024-02-23T14:43:41;12.70;99.90
21035;DHT22;10676;50.848;3.272;2024-02-23T14:46:14;12.90;99.90
21035;DHT22;10676;50.848;3.272;2024-02-23T14:48:45;12.90;99.90
21035;DHT22;10676;50.848;3.272;2024-02-23T14:51:14;13.10;99.90
21035;DHT22;10676;50.848;3.272;2024-02-23T14:53:40;13.30;99.90
21035;DHT22;10676;50.848;3.272;2024-02-23T14:56:06;13.30;99.90
21035;DHT22;10676;50.848;3.272;2024-02-23T14:58:32;13.30;99.90
21035;DHT22;10676;50.848;3.272;2024-02-23T15:00:57;13.30;99.90
21035;DHT22;10676;50.848;3.272;2024-02-23T15:03:24;13.20;99.90
21035;DHT22;10676;50.848;3.272;2024-02-23T15:05:49;13.20;99.90
21035;DHT22;10676;50.848;3.272;2024-02-23T15:08:15;13.10;99.90
21035;DHT22;10676;50.848;3.272;2024-02-23T15:10:40;13.00;99.90
21035;DHT22;10676;50.848;3.272;2024-02-23T15:13:15;13.00;99.90
21035;DHT22;10676;50.848;3.272;2024-02-23T15:15:44;12.90;99.90
21035;DHT22;10676;50.848;3.272;2024-02-23T15:18:28;12.80;99.90
21035;DHT22;10676;50.848;3.272;2024-02-23T15:20:57;12.60;99.90
21035;DHT22;10676;50.848;3.272;2024-02-23T15:23:23;12.30;99.90
21035;DHT22;10676;50.848;3.272;2024-02-23T15:25:50;12.10;99.90
21035;DHT22;10676;50.848;3.272;2024-02-23T15:28:15;11.90;99.90
21035;DHT22;10676;50.848;3.272;2024-02-23T15:30:50;11.70;99.90
21035;DHT22;10676;50.848;3.272;2024-02-23T15:33:17;11.50;99.90
21035;DHT22;10676;50.848;3.272;2024-02-23T15:35:42;11.30;99.90
21035;DHT22;10676;50.848;3.272;2024-02-23T15:38:08;11.10;99.90
21035;DHT22;10676;50.848;3.272;2024-02-23T15:40:34;10.90;99.90
21035;DHT22;10676;50.848;3.272;2024-02-23T15:42:59;10.80;99.90
21035;DHT22;10676;50.848;3.272;2024-02-23T15:45:25;10.70;99.90
21035;DHT22;10676;50.848;3.272;2024-02-23T15:47:52;10.60;99.90